Time,TemperatureF,DewpointF,PressureIn,WindDirection,WindDirectionDegrees,WindSpeedMPH,WindSpeedGustMPH,Humidity,HourlyPrecipIn,Conditions,Clouds,dailyrainin,SoftwareType,DateUTC
2013-03-07 00:11:00,47.4,40.0,30.27,ESE,118,0.0,0.0,76,0.00,,,0.00,weatherlink.com 1.10,2013-03-07 06:11:00,
2013-03-07 00:26:00,46.5,40.0,30.27,ESE,118,0.0,0.0,77,0.00,,,0.00,weatherlink.com 1.10,2013-03-07 06:26:00,
2013-03-07 00:41:00,45.4,39.0,30.26,ESE,118,0.0,0.0,79,0.00,,,0.00,weatherlink.com 1.10,2013-03-07 06:41:00,
2013-03-07 00:56:00,44.5,39.0,30.27,ESE,118,0.0,0.0,82,0.00,,,0.00,weatherlink.com 1.10,2013-03-07 06:56:00,
2013-03-07 01:11:00,43.8,39.0,30.26,ESE,118,0.0,0.0,84,0.00,,,0.00,weatherlink.com 1.10,2013-03-07 07:11:00,
2013-03-07 01:27:00,43.0,39.0,30.26,ESE,118,0.0,0.0,85,0.00,,,0.00,weatherlink.com 1.10,2013-03-07 07:27:00,
2013-03-07 01:41:00,42.4,39.0,30.26,ESE,118,0.0,0.0,86,0.00,,,0.00,weatherlink.com 1.10,2013-03-07 07:41:00,
2013-03-07 01:56:00,42.0,38.0,30.26,ESE,118,0.0,0.0,87,0.00,,,0.00,weatherlink.com 1.10,2013-03-07 07:56:00,
2013-03-07 02:12:00,41.8,39.0,30.25,ESE,118,0.0,0.0,88,0.00,,,0.00,weatherlink.com 1.10,2013-03-07 08:12:00,
2013-03-07 02:27:00,41.2,38.0,30.25,ESE,118,0.0,0.0,88,0.00,,,0.00,weatherlink.com 1.10,2013-03-07 08:27:00,
2013-03-07 02:42:00,40.9,38.0,30.24,ESE,118,0.0,0.0,89,0.00,,,0.00,weatherlink.com 1.10,2013-03-07 08:42:00,
2013-03-07 02:57:00,40.6,38.0,30.24,ESE,118,0.0,0.0,90,0.00,,,0.00,weatherlink.com 1.10,2013-03-07 08:57:00,
2013-03-07 03:12:00,40.0,37.0,30.23,ESE,118,0.0,0.0,90,0.00,,,0.00,weatherlink.com 1.10,2013-03-07 09:12:00,
2013-03-07 03:27:00,39.5,37.0,30.24,ESE,118,0.0,0.0,91,0.00,,,0.00,weatherlink.com 1.10,2013-03-07 09:27:00,
2013-03-07 03:42:00,39.4,37.0,30.23,ESE,118,0.0,0.0,92,0.00,,,0.00,weatherlink.com 1.10,2013-03-07 09:42:00,
2013-03-07 03:57:00,39.1,37.0,30.23,ESE,118,0.0,0.0,93,0.00,,,0.00,weatherlink.com 1.10,2013-03-07 09:57:00,
2013-03-07 04:12:00,39.0,37.0,30.22,ESE,118,0.0,0.0,93,0.00,,,0.00,weatherlink.com 1.10,2013-03-07 10:12:00,
2013-03-07 04:27:00,38.8,37.0,30.23,ESE,118,0.0,0.0,93,0.00,,,0.00,weatherlink.com 1.10,2013-03-07 10:27:00,
2013-03-07 04:42:00,38.9,37.0,30.23,ESE,118,0.0,0.0,93,0.00,,,0.00,weatherlink.com 1.10,2013-03-07 10:42:00,
2013-03-07 04:57:00,39.3,38.0,30.23,ESE,118,0.0,0.0,94,0.00,,,0.00,weatherlink.com 1.10,2013-03-07 10:57:00,
2013-03-07 05:12:00,39.3,38.0,30.24,ESE,118,0.0,0.0,94,0.00,,,0.00,weatherlink.com 1.10,2013-03-07 11:12:00,
2013-03-07 05:27:00,39.6,38.0,30.24,ESE,118,0.0,0.0,94,0.00,,,0.00,weatherlink.com 1.10,2013-03-07 11:27:00,
2013-03-07 05:42:00,39.1,38.0,30.24,ESE,118,0.0,0.0,94,0.00,,,0.00,weatherlink.com 1.10,2013-03-07 11:42:00,
2013-03-07 05:57:00,39.1,38.0,30.24,ESE,118,0.0,0.0,94,0.00,,,0.00,weatherlink.com 1.10,2013-03-07 11:57:00,
2013-03-07 06:12:00,38.7,37.0,30.24,ESE,118,0.0,0.0,94,0.00,,,0.00,weatherlink.com 1.10,2013-03-07 12:12:00,
2013-03-07 06:27:00,38.8,37.0,30.24,ESE,118,0.0,0.0,94,0.00,,,0.00,weatherlink.com 1.10,2013-03-07 12:27:00,
2013-03-07 06:42:00,38.6,37.0,30.25,ESE,118,0.0,0.0,94,0.00,,,0.00,weatherlink.com 1.10,2013-03-07 12:42:00,
2013-03-07 06:57:00,38.8,38.0,30.25,ESE,118,0.0,0.0,95,0.00,,,0.00,weatherlink.com 1.10,2013-03-07 12:57:00,
2013-03-07 07:12:00,39.7,38.0,30.27,ESE,118,0.0,0.0,95,0.00,,,0.00,weatherlink.com 1.10,2013-03-07 13:12:00,
2013-03-07 07:27:00,41.9,41.0,30.27,North,351,0.0,0.0,96,0.00,,,0.00,weatherlink.com 1.10,2013-03-07 13:27:00,
2013-03-07 07:42:00,45.7,44.0,30.27,North,352,0.0,0.0,94,0.00,,,0.00,weatherlink.com 1.10,2013-03-07 13:42:00,
2013-03-07 07:57:00,49.9,47.0,30.28,North,351,0.0,0.0,88,0.00,,,0.00,weatherlink.com 1.10,2013-03-07 13:57:00,
2013-03-07 08:13:00,53.1,47.0,30.29,East,88,0.0,1.0,80,0.00,,,0.00,weatherlink.com 1.10,2013-03-07 14:13:00,
2013-03-07 08:28:00,55.0,49.0,30.29,NNE,24,1.0,2.0,79,0.00,,,0.00,weatherlink.com 1.10,2013-03-07 14:28:00,
2013-03-07 08:43:00,57.2,50.0,30.30,NNE,28,1.0,5.0,77,0.00,,,0.00,weatherlink.com 1.10,2013-03-07 14:43:00,
2013-03-07 08:59:00,59.0,51.0,30.30,SSW,212,0.0,4.0,74,0.00,,,0.00,weatherlink.com 1.10,2013-03-07 14:59:00,
2013-03-07 09:13:00,60.6,51.0,30.30,ESE,118,0.0,4.0,71,0.00,,,0.00,weatherlink.com 1.10,2013-03-07 15:13:00,
2013-03-07 09:28:00,62.0,50.0,30.30,North,359,3.0,5.0,65,0.00,,,0.00,weatherlink.com 1.10,2013-03-07 15:28:00,
2013-03-07 09:43:00,62.3,49.0,30.30,North,8,2.0,6.0,62,0.00,,,0.00,weatherlink.com 1.10,2013-03-07 15:43:00,
2013-03-07 09:58:00,63.3,49.0,30.30,NE,39,2.0,6.0,61,0.00,,,0.00,weatherlink.com 1.10,2013-03-07 15:58:00,
2013-03-07 10:30:00,64.4,50.0,30.30,ENE,58,3.0,8.0,59,0.00,,,0.00,weatherlink.com 1.10,2013-03-07 16:30:00,
2013-03-07 10:44:00,65.3,49.0,30.30,SW,226,3.0,7.0,56,0.00,,,0.00,weatherlink.com 1.10,2013-03-07 16:44:00,
2013-03-07 10:59:00,65.9,50.0,30.30,SSE,161,1.0,7.0,57,0.00,,,0.00,weatherlink.com 1.10,2013-03-07 16:59:00,
2013-03-07 11:13:00,65.7,50.0,30.29,SSE,166,4.0,8.0,57,0.00,,,0.00,weatherlink.com 1.10,2013-03-07 17:13:00,
2013-03-07 11:43:00,67.5,51.0,30.28,SW,214,2.0,5.0,55,0.00,,,0.00,weatherlink.com 1.10,2013-03-07 17:43:00,
2013-03-07 11:59:00,68.2,46.0,30.29,SW,218,1.0,8.0,46,0.00,,,0.00,weatherlink.com 1.10,2013-03-07 17:59:00,
2013-03-07 12:13:00,68.3,47.0,30.28,South,182,4.0,9.0,46,0.00,,,0.00,weatherlink.com 1.10,2013-03-07 18:13:00,
2013-03-07 12:28:00,69.1,47.0,30.27,SSW,207,6.0,7.0,45,0.00,,,0.00,weatherlink.com 1.10,2013-03-07 18:28:00,
2013-03-07 12:43:00,70.1,48.0,30.27,ESE,111,3.0,8.0,46,0.00,,,0.00,weatherlink.com 1.10,2013-03-07 18:43:00,
2013-03-07 13:14:00,69.6,46.0,30.25,SW,227,2.0,11.0,43,0.00,,,0.00,weatherlink.com 1.10,2013-03-07 19:14:00,
2013-03-07 13:29:00,69.4,46.0,30.25,WSW,256,4.0,13.0,44,0.00,,,0.00,weatherlink.com 1.10,2013-03-07 19:29:00,
2013-03-07 13:44:00,69.3,48.0,30.24,SSW,209,4.0,10.0,47,0.00,,,0.00,weatherlink.com 1.10,2013-03-07 19:44:00,
2013-03-07 13:59:00,68.6,47.0,30.24,WSW,249,6.0,13.0,47,0.00,,,0.00,weatherlink.com 1.10,2013-03-07 19:59:00,
2013-03-07 14:14:00,68.8,46.0,30.23,WSW,256,4.0,7.0,45,0.00,,,0.00,weatherlink.com 1.10,2013-03-07 20:14:00,
2013-03-07 14:29:00,68.6,49.0,30.23,NW,311,5.0,10.0,49,0.00,,,0.00,weatherlink.com 1.10,2013-03-07 20:29:00,
2013-03-07 14:44:00,68.8,50.0,30.22,WSW,254,2.0,7.0,51,0.00,,,0.00,weatherlink.com 1.10,2013-03-07 20:44:00,
2013-03-07 14:59:00,68.0,47.0,30.22,NNW,343,4.0,8.0,47,0.00,,,0.00,weatherlink.com 1.10,2013-03-07 20:59:00,
2013-03-07 15:14:00,66.9,48.0,30.22,NE,46,3.0,9.0,50,0.00,,,0.00,weatherlink.com 1.10,2013-03-07 21:14:00,
2013-03-07 15:29:00,66.3,47.0,30.22,ENE,71,4.0,6.0,50,0.00,,,0.00,weatherlink.com 1.10,2013-03-07 21:29:00,
2013-03-07 15:44:00,65.7,46.0,30.21,SSW,192,2.0,10.0,50,0.00,,,0.00,weatherlink.com 1.10,2013-03-07 21:44:00,
2013-03-07 15:59:00,65.3,47.0,30.21,West,260,7.0,10.0,52,0.00,,,0.00,weatherlink.com 1.10,2013-03-07 21:59:00,
2013-03-07 16:14:00,65.1,48.0,30.20,NNW,332,3.0,8.0,54,0.00,,,0.00,weatherlink.com 1.10,2013-03-07 22:14:00,
2013-03-07 16:29:00,64.0,47.0,30.20,WNW,288,2.0,9.0,55,0.00,,,0.00,weatherlink.com 1.10,2013-03-07 22:29:00,
2013-03-07 16:44:00,64.1,47.0,30.21,North,350,4.0,10.0,55,0.00,,,0.00,weatherlink.com 1.10,2013-03-07 22:44:00,
2013-03-07 16:59:00,63.4,48.0,30.21,NNE,19,5.0,10.0,58,0.00,,,0.00,weatherlink.com 1.10,2013-03-07 22:59:00,
2013-03-07 17:14:00,62.8,48.0,30.22,North,355,5.0,9.0,59,0.00,,,0.00,weatherlink.com 1.10,2013-03-07 23:14:00,
2013-03-07 17:29:00,61.8,48.0,30.21,ESE,118,1.0,8.0,61,0.00,,,0.00,weatherlink.com 1.10,2013-03-07 23:29:00,
2013-03-07 17:44:00,60.9,48.0,30.22,NE,36,5.0,7.0,63,0.00,,,0.00,weatherlink.com 1.10,2013-03-07 23:44:00,
2013-03-07 17:59:00,60.3,48.0,30.22,ENE,73,2.0,6.0,64,0.00,,,0.00,weatherlink.com 1.10,2013-03-07 23:59:00,
2013-03-07 18:14:00,59.5,48.0,30.22,North,355,0.0,6.0,66,0.00,,,0.00,weatherlink.com 1.10,2013-03-08 00:14:00,
2013-03-07 18:29:00,58.6,48.0,30.22,NE,40,0.0,5.0,68,0.00,,,0.00,weatherlink.com 1.10,2013-03-08 00:29:00,
2013-03-07 18:44:00,58.0,48.0,30.22,NE,40,0.0,4.0,70,0.00,,,0.00,weatherlink.com 1.10,2013-03-08 00:44:00,
2013-03-07 18:59:00,57.4,48.0,30.23,NE,34,1.0,4.0,71,0.00,,,0.00,weatherlink.com 1.10,2013-03-08 00:59:00,
2013-03-07 19:14:00,57.0,48.0,30.24,NNE,22,0.0,4.0,72,0.00,,,0.00,weatherlink.com 1.10,2013-03-08 01:14:00,
2013-03-07 19:29:00,56.2,48.0,30.24,NNE,33,0.0,0.0,74,0.00,,,0.00,weatherlink.com 1.10,2013-03-08 01:29:00,
2013-03-07 19:44:00,55.2,48.0,30.24,NNE,33,0.0,0.0,76,0.00,,,0.00,weatherlink.com 1.10,2013-03-08 01:44:00,
2013-03-07 20:00:00,54.9,48.0,30.23,NE,34,0.0,2.0,78,0.00,,,0.00,weatherlink.com 1.10,2013-03-08 02:00:00,
2013-03-07 20:15:00,54.7,48.0,30.23,NE,39,0.0,1.0,79,0.00,,,0.00,weatherlink.com 1.10,2013-03-08 02:15:00,
2013-03-07 20:30:00,54.3,48.0,30.23,NE,38,0.0,0.0,80,0.00,,,0.00,weatherlink.com 1.10,2013-03-08 02:30:00,
2013-03-07 20:45:00,54.0,49.0,30.23,NNE,29,0.0,0.0,82,0.00,,,0.00,weatherlink.com 1.10,2013-03-08 02:45:00,
2013-03-07 20:59:00,54.0,49.0,30.23,NNE,32,0.0,0.0,84,0.00,,,0.00,weatherlink.com 1.10,2013-03-08 02:59:00,
2013-03-07 21:14:00,54.0,50.0,30.23,NE,40,0.0,0.0,85,0.00,,,0.00,weatherlink.com 1.10,2013-03-08 03:14:00,
2013-03-07 21:29:00,54.0,50.0,30.23,NNE,33,0.0,1.0,85,0.00,,,0.00,weatherlink.com 1.10,2013-03-08 03:29:00,
2013-03-07 21:44:00,53.9,50.0,30.23,NNE,33,0.0,0.0,86,0.00,,,0.00,weatherlink.com 1.10,2013-03-08 03:44:00,
2013-03-07 21:59:00,53.8,50.0,30.22,NE,47,0.0,0.0,87,0.00,,,0.00,weatherlink.com 1.10,2013-03-08 03:59:00,
2013-03-07 22:14:00,53.8,50.0,30.23,NE,47,0.0,0.0,87,0.00,,,0.00,weatherlink.com 1.10,2013-03-08 04:14:00,
2013-03-07 22:29:00,53.5,50.0,30.23,NE,47,0.0,0.0,87,0.00,,,0.00,weatherlink.com 1.10,2013-03-08 04:29:00,
2013-03-07 22:44:00,52.7,49.0,30.23,NE,49,0.0,0.0,88,0.00,,,0.00,weatherlink.com 1.10,2013-03-08 04:44:00,
2013-03-07 23:00:00,51.8,49.0,30.23,NE,49,0.0,0.0,90,0.00,,,0.00,weatherlink.com 1.10,2013-03-08 05:00:00,
2013-03-07 23:15:00,51.0,48.0,30.23,NE,49,0.0,0.0,90,0.00,,,0.00,weatherlink.com 1.10,2013-03-08 05:15:00,
2013-03-07 23:30:00,50.3,48.0,30.22,NE,48,0.0,0.0,91,0.00,,,0.00,weatherlink.com 1.10,2013-03-08 05:30:00,
2013-03-07 23:45:00,50.7,49.0,30.22,NE,47,0.0,0.0,93,0.00,,,0.00,weatherlink.com 1.10,2013-03-08 05:45:00,